Time;durP1;ratioP1;P1;durP2;ratioP2;P2;SDS_P1;SDS_P2;PMS_P1;PMS_P2;Temp;Humidity;BMP_temperature;BMP_pressure;BME280_temperature;BME280_humidity;BME280_pressure;Samples;Min_cycle;Max_cycle;Signal;HPM_P1;HPM_P2
2023/01/01 00:01:59;;;;;;;18.27;11.32;;;15.60;76.90;;;;;;4914934;29;20051;-83
2023/01/01 00:04:30;;;;;;;16.98;11.65;;;15.60;76.80;;;;;;4878507;29;20047;-82
2023/01/01 00:06:57;;;;;;;17.27;11.38;;;15.60;76.80;;;;;;4894618;29;20104;-82
2023/01/01 00:12:10;;;;;;;16.17;11.45;;;15.60;76.90;;;;;;4887777;29;20091;-83
2023/01/01 00:14:38;;;;;;;16.70;10.10;;;15.60;76.30;;;;;;4888189;29;20475;-83
2023/01/01 00:17:05;;;;;;;17.42;10.48;;;15.60;76.50;;;;;;4902153;29;20044;-83
2023/01/01 00:19:32;;;;;;;15.45;8.55;;;15.60;75.90;;;;;;4873064;29;20050;-83
2023/01/01 00:21:59;;;;;;;12.68;8.48;;;15.60;76.20;;;;;;4895329;29;20460;-83
2023/01/01 00:24:46;;;;;;;12.02;7.10;;;15.60;76.30;;;;;;4913049;29;20040;-83
2023/01/01 00:27:13;;;;;;;14.38;7.35;;;15.60;76.10;;;;;;4887745;29;20068;-83
2023/01/01 00:29:40;;;;;;;12.15;6.57;;;15.60;76.60;;;;;;4895960;29;20048;-83
2023/01/01 00:32:07;;;;;;;15.40;7.55;;;15.60;76.00;;;;;;4898520;29;20135;-83
2023/01/01 00:34:40;;;;;;;11.70;7.03;;;15.70;74.90;;;;;;4877926;29;20048;-84
2023/01/01 00:37:07;;;;;;;11.82;6.55;;;15.70;75.20;;;;;;4902005;29;20051;-84
2023/01/01 00:39:34;;;;;;;12.05;6.50;;;15.70;75.50;;;;;;4896012;29;20134;-83
2023/01/01 00:42:01;;;;;;;9.52;4.97;;;15.70;75.20;;;;;;4907629;29;20562;-83
2023/01/01 00:44:28;;;;;;;13.80;5.65;;;15.70;74.60;;;;;;4881377;29;20048;-83
2023/01/01 00:46:57;;;;;;;7.38;4.40;;;15.70;73.90;;;;;;4885699;29;20051;-83
2023/01/01 00:49:24;;;;;;;8.88;4.13;;;15.60;74.80;;;;;;4913868;29;20115;-83
2023/01/01 00:51:51;;;;;;;8.15;3.58;;;15.50;75.50;;;;;;4883892;29;20123;-83
2023/01/01 00:54:21;;;;;;;9.40;4.47;;;15.40;76.30;;;;;;4899898;29;20048;-83
2023/01/01 00:56:49;;;;;;;10.65;4.03;;;15.30;77.50;;;;;;4882715;29;20044;-83
2023/01/01 00:59:18;;;;;;;10.13;3.47;;;15.20;77.00;;;;;;4885196;29;20044;-83
2023/01/01 01:01:52;;;;;;;7.55;2.83;;;15.20;77.60;;;;;;4913353;29;20039;-83
2023/01/01 01:04:25;;;;;;;6.70;2.58;;;15.20;77.60;;;;;;4900874;29;20040;-84
2023/01/01 01:06:52;;;;;;;5.47;3.20;;;15.20;77.70;;;;;;4872798;29;20047;-84
2023/01/01 01:09:19;;;;;;;5.82;2.67;;;15.30;77.90;;;;;;4907406;29;20090;-84
2023/01/01 01:11:46;;;;;;;6.70;2.63;;;15.30;77.70;;;;;;4879526;29;20048;-84
2023/01/01 01:14:13;;;;;;;8.93;2.85;;;15.20;77.60;;;;;;4891667;29;20048;-84
2023/01/01 01:16:41;;;;;;;9.15;2.17;;;15.20;77.90;;;;;;4881487;29;20055;-83
2023/01/01 01:19:13;;;;;;;6.32;2.10;;;15.20;77.70;;;;;;4883465;29;20393;-84
2023/01/01 01:21:41;;;;;;;7.82;2.58;;;15.20;77.80;;;;;;4896010;29;20044;-83
2023/01/01 01:24:12;;;;;;;7.68;2.83;;;15.20;77.90;;;;;;4885124;29;20070;-84
2023/01/01 01:26:39;;;;;;;6.90;1.92;;;15.10;77.70;;;;;;4884614;29;20067;-83
2023/01/01 01:29:09;;;;;;;7.57;1.88;;;15.00;77.70;;;;;;4898241;29;20126;-84
2023/01/01 01:31:36;;;;;;;5.60;2.00;;;15.00;77.60;;;;;;4895099;29;20095;-84
2023/01/01 01:34:03;;;;;;;3.88;1.80;;;15.00;77.30;;;;;;4913719;29;20040;-84
2023/01/01 01:36:32;;;;;;;4.63;1.40;;;15.00;77.50;;;;;;4913290;29;20051;-84
2023/01/01 01:38:59;;;;;;;4.50;1.60;;;15.00;77.50;;;;;;4860184;29;20052;-83
2023/01/01 01:41:30;;;;;;;5.35;1.35;;;15.10;77.50;;;;;;4878352;29;20399;-84
2023/01/01 01:44:03;;;;;;;5.00;1.38;;;15.10;77.10;;;;;;4868037;29;20092;-84
2023/01/01 01:46:43;;;;;;;4.82;2.33;;;15.00;76.70;;;;;;4900873;29;20422;-83
2023/01/01 01:49:17;;;;;;;5.63;1.58;;;15.10;76.60;;;;;;4905266;29;20107;-84
2023/01/01 01:51:45;;;;;;;6.72;1.30;;;15.10;76.80;;;;;;4900707;29;20040;-84
2023/01/01 01:54:17;;;;;;;5.10;1.65;;;15.10;76.30;;;;;;4869737;29;20562;-84
2023/01/01 01:57:00;;;;;;;4.47;0.82;;;15.20;76.20;;;;;;4911586;29;20581;-84
2023/01/01 01:59:32;;;;;;;3.63;0.90;;;15.20;76.50;;;;;;4919234;29;20133;-84
2023/01/01 02:02:00;;;;;;;6.80;1.38;;;15.20;76.50;;;;;;4907520;29;20051;-84
2023/01/01 02:04:28;;;;;;;3.65;1.20;;;15.20;76.30;;;;;;4898497;29;20415;-84
2023/01/01 02:06:55;;;;;;;9.20;1.83;;;15.20;76.00;;;;;;4880561;29;20055;-84
2023/01/01 02:09:23;;;;;;;4.75;1.40;;;15.20;75.60;;;;;;4931480;29;20048;-84
2023/01/01 02:11:54;;;;;;;3.67;0.90;;;15.20;75.90;;;;;;4894463;29;20055;-84
2023/01/01 02:14:21;;;;;;;3.47;1.02;;;15.20;76.20;;;;;;4905932;29;20090;-83
2023/01/01 02:16:59;;;;;;;5.07;1.10;;;15.30;76.20;;;;;;4889048;29;20048;-84
2023/01/01 02:19:29;;;;;;;7.32;1.35;;;15.30;75.90;;;;;;4904985;29;20414;-84
2023/01/01 02:22:27;;;;;;;3.33;1.13;;;15.20;75.20;;;;;;4910399;29;20115;-84
2023/01/01 02:25:09;;;;;;;3.72;1.30;;;15.20;75.70;;;;;;4901487;29;20055;-84
2023/01/01 02:28:11;;;;;;;6.82;1.20;;;15.00;76.00;;;;;;4900116;29;20513;-84
2023/01/01 02:30:40;;;;;;;4.00;0.93;;;15.00;76.10;;;;;;4887824;29;20499;-84
2023/01/01 02:33:13;;;;;;;2.83;0.90;;;15.00;76.20;;;;;;4900008;29;20052;-84
2023/01/01 02:35:42;;;;;;;;;;;15.00;76.20;;;;;;4884657;29;20074;-84
2023/01/01 02:38:25;;;;;;;4.63;0.82;;;15.00;75.70;;;;;;4884514;29;19947;-84
2023/01/01 02:41:12;;;;;;;3.50;1.08;;;15.10;75.60;;;;;;4910259;29;20103;-84
2023/01/01 02:43:40;;;;;;;3.22;0.80;;;15.10;75.70;;;;;;4905422;29;20044;-84
2023/01/01 02:46:11;;;;;;;4.55;0.90;;;15.10;75.80;;;;;;4911021;29;20106;-84
2023/01/01 02:48:43;;;;;;;3.83;1.10;;;15.20;75.70;;;;;;4912975;29;20399;-84
2023/01/01 02:51:13;;;;;;;3.47;1.17;;;15.20;74.90;;;;;;4884626;29;20044;-84
2023/01/01 02:54:06;;;;;;;2.90;0.90;;;15.20;74.80;;;;;;4905347;29;20498;-84
2023/01/01 02:56:44;;;;;;;4.70;1.40;;;15.20;74.40;;;;;;4917085;29;20139;-84
2023/01/01 03:02:35;;;;;;;6.63;1.17;;;15.30;74.30;;;;;;4923838;29;20060;-84
2023/01/01 03:06:21;;;;;;;4.00;0.85;;;15.20;73.70;;;;;;4910820;29;20142;-84
2023/01/01 03:09:04;;;;;;;5.30;1.17;;;15.30;73.20;;;;;;4906207;29;20099;-84
2023/01/01 03:11:54;;;;;;;4.18;1.05;;;15.30;73.10;;;;;;4788691;29;20054;-84
2023/01/01 03:15:00;;;;;;;3.47;1.10;;;15.30;73.10;;;;;;4883439;29;20518;-84
2023/01/01 03:17:37;;;;;;;5.22;1.00;;;15.30;73.10;;;;;;4876757;29;20103;-84
2023/01/01 03:20:15;;;;;;;3.80;0.98;;;15.30;72.90;;;;;;4907103;29;20103;-84
2023/01/01 03:22:46;;;;;;;4.28;0.80;;;15.30;73.30;;;;;;4905121;29;20055;-84
2023/01/01 03:25:24;;;;;;;3.75;0.90;;;15.20;73.50;;;;;;4905554;29;20557;-84
2023/01/01 03:27:58;;;;;;;2.47;0.80;;;15.30;73.30;;;;;;4907220;29;20067;-84
2023/01/01 03:30:27;;;;;;;3.25;0.70;;;15.20;73.30;;;;;;4905634;29;20118;-84
2023/01/01 03:33:02;;;;;;;4.20;0.85;;;15.20;73.70;;;;;;4889488;29;20549;-87
2023/01/01 03:35:34;;;;;;;4.97;0.65;;;15.20;74.10;;;;;;4908827;29;20391;-87
2023/01/01 03:38:04;;;;;;;3.43;1.03;;;15.10;74.00;;;;;;4922398;29;20138;-87
2023/01/01 03:40:33;;;;;;;2.92;0.77;;;15.10;74.40;;;;;;4922547;29;20288;-87
2023/01/01 03:43:48;;;;;;;3.00;0.77;;;15.10;74.80;;;;;;4911988;29;20048;-87
2023/01/01 03:46:19;;;;;;;1.65;0.50;;;15.10;74.40;;;;;;4861596;29;20040;-87
2023/01/01 03:48:55;;;;;;;2.50;0.47;;;15.00;74.80;;;;;;4920333;29;20075;-86
2023/01/01 03:51:50;;;;;;;2.25;0.60;;;15.00;74.90;;;;;;4890073;29;20048;-86
2023/01/01 03:54:43;;;;;;;5.28;1.00;;;15.00;75.10;;;;;;4903260;29;20052;-87
2023/01/01 03:57:13;;;;;;;2.78;0.40;;;15.00;75.10;;;;;;4904724;29;20056;-87
2023/01/01 03:59:48;;;;;;;2.83;0.90;;;14.90;75.50;;;;;;4915644;29;20079;-86
2023/01/01 04:02:19;;;;;;;1.60;0.50;;;14.90;75.10;;;;;;4907722;29;20419;-86
2023/01/01 04:04:48;;;;;;;4.47;1.07;;;14.90;75.20;;;;;;4901419;29;20546;-86
2023/01/01 04:07:16;;;;;;;1.80;0.77;;;14.90;75.50;;;;;;4913846;29;20096;-87
2023/01/01 04:09:48;;;;;;;3.95;0.85;;;14.90;74.80;;;;;;4894839;29;20092;-87
2023/01/01 04:12:16;;;;;;;;;;;14.90;74.80;;;;;;4915984;29;20514;-87
2023/01/01 04:14:46;;;;;;;2.90;0.60;;;14.90;74.80;;;;;;4918153;29;20029;-87
2023/01/01 04:17:14;;;;;;;3.38;0.88;;;14.90;74.30;;;;;;4877509;29;20421;-85
2023/01/01 04:19:41;;;;;;;4.38;1.02;;;14.90;74.10;;;;;;4918915;29;20746;-86
2023/01/01 04:22:08;;;;;;;4.00;0.73;;;14.90;74.60;;;;;;4888539;29;20072;-86
2023/01/01 04:24:35;;;;;;;3.70;1.05;;;15.00;74.10;;;;;;4920274;29;20048;-86
2023/01/01 04:27:02;;;;;;;3.83;1.40;;;15.00;74.60;;;;;;4901602;29;20078;-87
2023/01/01 04:29:29;;;;;;;5.57;0.80;;;14.90;74.60;;;;;;4890519;29;20051;-87
2023/01/01 04:31:57;;;;;;;2.25;0.57;;;14.90;74.80;;;;;;4890547;29;20056;-86
2023/01/01 04:34:24;;;;;;;1.80;0.60;;;14.90;74.10;;;;;;4890599;29;20051;-86
2023/01/01 04:36:51;;;;;;;3.42;0.70;;;14.90;74.40;;;;;;4868563;29;20059;-87
2023/01/01 04:39:23;;;;;;;4.15;0.60;;;15.00;74.50;;;;;;4884411;29;20143;-86
2023/01/01 04:41:50;;;;;;;4.63;1.00;;;14.90;74.80;;;;;;4905081;29;20043;-86
2023/01/01 04:44:17;;;;;;;4.03;0.85;;;15.00;74.00;;;;;;4887521;29;20052;-86
2023/01/01 04:46:47;;;;;;;4.97;0.77;;;15.00;74.00;;;;;;4885278;29;20100;-86
2023/01/01 04:49:14;;;;;;;3.72;0.70;;;15.00;74.00;;;;;;4883861;29;20079;-87
2023/01/01 04:51:41;;;;;;;4.07;0.70;;;15.00;73.70;;;;;;4867861;29;20099;-87
2023/01/01 04:54:08;;;;;;;2.97;0.90;;;15.00;73.70;;;;;;4877001;29;20517;-87
2023/01/01 04:56:36;;;;;;;3.67;0.73;;;15.00;73.70;;;;;;4864751;29;20075;-86
2023/01/01 04:59:07;;;;;;;5.35;0.80;;;15.00;73.60;;;;;;4873563;29;20497;-86
2023/01/01 05:01:34;;;;;;;4.50;0.77;;;15.00;73.70;;;;;;4885993;29;20043;-86
2023/01/01 05:04:01;;;;;;;8.55;0.98;;;15.00;73.90;;;;;;4876659;29;20139;-86
2023/01/01 05:06:28;;;;;;;4.95;0.63;;;15.00;74.00;;;;;;4867298;29;20056;-86
2023/01/01 05:08:59;;;;;;;6.95;1.20;;;15.00;74.00;;;;;;4869892;29;20146;-86
2023/01/01 05:11:29;;;;;;;3.50;0.70;;;15.00;73.80;;;;;;4898544;29;20059;-86
2023/01/01 05:13:58;;;;;;;5.25;0.95;;;15.00;74.00;;;;;;4898850;29;20047;-86
2023/01/01 05:16:29;;;;;;;3.55;1.10;;;14.90;74.00;;;;;;4889718;29;20055;-86
2023/01/01 05:18:57;;;;;;;5.80;0.90;;;15.00;74.10;;;;;;4920235;29;20059;-86
2023/01/01 05:21:26;;;;;;;2.92;0.60;;;15.00;74.10;;;;;;4902495;29;20075;-86
2023/01/01 05:24:02;;;;;;;6.28;1.10;;;15.00;74.40;;;;;;4895346;29;20147;-86
2023/01/01 05:26:31;;;;;;;4.00;0.82;;;15.00;74.10;;;;;;4901192;29;20127;-86
2023/01/01 05:28:59;;;;;;;5.43;0.90;;;14.90;74.10;;;;;;4908602;29;20057;-86
2023/01/01 05:31:30;;;;;;;5.50;0.80;;;15.00;74.60;;;;;;4876861;29;20044;-87
2023/01/01 05:33:57;;;;;;;2.83;0.70;;;14.90;74.60;;;;;;4891902;29;20069;-87
2023/01/01 05:36:26;;;;;;;4.68;0.93;;;14.80;74.90;;;;;;4877835;29;20047;-87
2023/01/01 05:38:54;;;;;;;3.22;0.55;;;14.90;75.10;;;;;;4899184;29;20052;-86
2023/01/01 05:41:25;;;;;;;4.40;0.63;;;14.80;75.40;;;;;;4870831;29;20048;-86
2023/01/01 05:43:52;;;;;;;7.55;1.30;;;14.80;75.50;;;;;;4908618;29;20048;-86
2023/01/01 05:46:22;;;;;;;3.50;0.70;;;14.80;75.60;;;;;;4879733;29;20048;-87
2023/01/01 05:48:57;;;;;;;3.65;0.60;;;14.80;75.60;;;;;;4898932;29;20055;-86
2023/01/01 05:51:27;;;;;;;2.42;0.70;;;14.80;74.60;;;;;;4887680;29;20055;-87
2023/01/01 05:53:55;;;;;;;3.83;0.80;;;14.80;74.10;;;;;;4919687;29;20051;-86
2023/01/01 05:56:22;;;;;;;4.22;0.60;;;14.70;73.90;;;;;;4918002;29;20127;-87
2023/01/01 05:58:50;;;;;;;5.20;0.80;;;14.70;73.40;;;;;;4883204;29;20048;-86
2023/01/01 06:01:30;;;;;;;3.17;0.75;;;14.70;73.60;;;;;;4885794;29;20127;-86
2023/01/01 06:03:58;;;;;;;2.30;0.60;;;14.70;73.90;;;;;;4905019;29;20084;-86
2023/01/01 06:06:32;;;;;;;4.40;0.70;;;14.60;74.00;;;;;;4885904;29;20051;-87
2023/01/01 06:09:03;;;;;;;3.63;0.60;;;14.60;74.40;;;;;;4882974;29;20055;-86
2023/01/01 06:11:34;;;;;;;3.38;0.52;;;14.50;74.50;;;;;;4904458;29;20052;-86
2023/01/01 06:14:01;;;;;;;2.13;0.60;;;14.50;74.70;;;;;;4932846;29;20052;-86
2023/01/01 06:16:29;;;;;;;3.92;0.60;;;14.50;74.60;;;;;;4890905;29;20058;-86
2023/01/01 06:18:58;;;;;;;4.05;0.50;;;14.50;74.60;;;;;;4877113;29;20050;-87
2023/01/01 06:21:26;;;;;;;2.55;0.50;;;14.50;74.30;;;;;;4888089;29;20048;-87
2023/01/01 06:23:57;;;;;;;3.25;0.80;;;14.50;74.20;;;;;;4885596;29;20066;-87
2023/01/01 06:26:31;;;;;;;3.80;0.57;;;14.50;73.90;;;;;;4888506;29;20581;-87
2023/01/01 06:29:00;;;;;;;2.92;0.60;;;14.50;73.90;;;;;;4866926;29;20048;-87
2023/01/01 06:31:29;;;;;;;3.75;0.73;;;14.40;73.90;;;;;;4914106;29;20047;-87
2023/01/01 06:34:05;;;;;;;5.43;0.65;;;14.40;74.30;;;;;;4919435;29;20048;-87
2023/01/01 06:36:32;;;;;;;3.22;0.55;;;14.30;74.20;;;;;;4875958;29;20080;-87
2023/01/01 06:39:02;;;;;;;3.33;0.90;;;14.30;74.50;;;;;;4854959;29;20112;-87
2023/01/01 06:41:29;;;;;;;4.13;0.60;;;14.30;74.70;;;;;;4912076;29;20051;-87
2023/01/01 06:44:00;;;;;;;3.72;0.40;;;14.30;74.90;;;;;;4888733;29;20046;-87
2023/01/01 06:46:33;;;;;;;4.45;0.60;;;14.20;75.10;;;;;;4919200;29;20417;-87
2023/01/01 06:49:03;;;;;;;2.47;0.68;;;14.20;75.50;;;;;;4888752;29;20048;-87
2023/01/01 06:51:40;;;;;;;2.65;0.52;;;14.10;76.00;;;;;;4902085;29;20058;-87
2023/01/01 06:54:11;;;;;;;5.30;0.75;;;14.00;76.30;;;;;;4915510;29;20048;-87
2023/01/01 06:56:38;;;;;;;3.13;0.50;;;14.00;76.60;;;;;;4900256;29;20048;-87
2023/01/01 06:59:06;;;;;;;3.85;0.40;;;14.00;76.90;;;;;;4869440;29;20048;-87
2023/01/01 07:01:35;;;;;;;3.65;0.60;;;13.90;76.90;;;;;;4894057;29;20081;-88
2023/01/01 07:04:04;;;;;;;2.83;0.80;;;13.90;76.90;;;;;;4919298;29;20047;-87
2023/01/01 07:06:32;;;;;;;4.70;0.55;;;13.90;76.70;;;;;;4938267;29;20043;-87
2023/01/01 07:09:00;;;;;;;3.83;0.60;;;13.90;77.60;;;;;;4909142;29;20056;-86
2023/01/01 07:11:30;;;;;;;2.40;0.30;;;13.90;76.50;;;;;;4896107;29;20107;-87
2023/01/01 07:14:00;;;;;;;4.05;0.40;;;13.80;76.00;;;;;;4909752;29;20083;-87
2023/01/01 07:16:27;;;;;;;2.28;0.30;;;13.60;76.10;;;;;;4901016;29;20076;-87
2023/01/01 07:18:56;;;;;;;2.45;0.60;;;13.40;76.70;;;;;;4908239;29;20051;-87
2023/01/01 07:21:35;;;;;;;4.30;0.32;;;13.10;77.50;;;;;;4879564;29;20134;-89
2023/01/01 07:24:04;;;;;;;1.02;0.20;;;12.90;78.30;;;;;;4923225;29;20454;-89
2023/01/01 07:26:32;;;;;;;1.13;0.20;;;12.70;79.20;;;;;;4878057;29;20092;-87
2023/01/01 07:29:02;;;;;;;1.58;0.30;;;12.60;79.90;;;;;;4885039;29;20408;-88
2023/01/01 07:31:35;;;;;;;2.13;0.35;;;12.50;80.50;;;;;;4902702;29;20048;-91
2023/01/01 07:34:06;;;;;;;1.90;0.20;;;12.40;81.10;;;;;;4923823;29;20566;-88
2023/01/01 07:36:33;;;;;;;1.98;0.20;;;12.30;81.70;;;;;;4892086;29;20521;-88
2023/01/01 07:39:00;;;;;;;2.42;0.70;;;12.10;82.50;;;;;;4873095;29;20143;-88
2023/01/01 07:41:28;;;;;;;3.00;0.20;;;12.00;83.00;;;;;;4873356;29;20087;-87
2023/01/01 07:44:03;;;;;;;1.88;0.40;;;11.80;83.70;;;;;;4887421;29;20048;-88
2023/01/01 07:46:30;;;;;;;3.70;0.40;;;11.70;84.30;;;;;;4888554;29;20079;-87
2023/01/01 07:48:57;;;;;;;2.92;0.17;;;11.60;85.10;;;;;;4872806;29;20052;-87
2023/01/01 07:51:24;;;;;;;2.08;0.20;;;11.50;85.70;;;;;;4887719;29;20044;-86
2023/01/01 07:53:54;;;;;;;2.88;0.63;;;11.40;86.20;;;;;;4885331;29;20051;-87
2023/01/01 07:56:26;;;;;;;1.63;0.25;;;11.30;86.60;;;;;;4898848;29;20126;-87
2023/01/01 07:58:53;;;;;;;1.60;0.15;;;11.30;86.90;;;;;;4878008;29;20072;-87
2023/01/01 08:01:20;;;;;;;0.90;0.10;;;11.30;87.10;;;;;;4882354;29;20527;-87
2023/01/01 08:03:51;;;;;;;1.58;0.20;;;11.20;87.30;;;;;;4901270;29;20110;-87
2023/01/01 08:06:19;;;;;;;0.88;0.10;;;11.30;87.40;;;;;;4885322;29;20112;-86
2023/01/01 08:08:46;;;;;;;2.60;0.20;;;11.30;87.60;;;;;;4884231;29;20056;-87
2023/01/01 08:11:13;;;;;;;3.42;0.30;;;11.30;87.60;;;;;;4886260;29;20151;-87
2023/01/01 08:13:43;;;;;;;1.25;0.38;;;11.40;87.70;;;;;;4872548;29;20100;-92
2023/01/01 08:16:10;;;;;;;1.70;0.25;;;11.40;87.60;;;;;;4904057;29;20048;-90
2023/01/01 08:18:37;;;;;;;0.68;0.20;;;11.50;87.60;;;;;;4905768;29;20099;-87
2023/01/01 08:21:05;;;;;;;1.25;0.25;;;11.50;87.40;;;;;;4889145;29;20137;-90
2023/01/01 08:23:32;;;;;;;3.63;0.40;;;11.60;87.40;;;;;;4904635;29;20052;-92
2023/01/01 08:26:03;;;;;;;1.20;0.20;;;11.60;87.40;;;;;;4913290;29;20047;-85
2023/01/01 08:28:30;;;;;;;0.65;0.10;;;11.70;87.40;;;;;;4922276;29;20486;-88
2023/01/01 08:31:00;;;;;;;2.20;0.30;;;11.70;87.20;;;;;;4928788;29;20045;-89
2023/01/01 08:33:28;;;;;;;3.88;0.30;;;11.80;87.20;;;;;;4902995;29;20058;-89
2023/01/01 08:35:55;;;;;;;0.82;0.20;;;11.80;87.50;;;;;;4883161;29;20147;-89
2023/01/01 08:38:22;;;;;;;3.10;0.40;;;11.80;86.70;;;;;;4856946;29;20044;-95
2023/01/01 08:40:53;;;;;;;1.35;0.20;;;11.90;86.60;;;;;;4888550;29;20048;-93
2023/01/01 08:43:20;;;;;;;2.92;0.30;;;11.90;86.50;;;;;;4872954;29;20072;-89
2023/01/01 08:45:52;;;;;;;2.03;0.20;;;11.90;86.50;;;;;;4872860;29;20040;-94
2023/01/01 08:48:27;;;;;;;2.65;0.20;;;12.00;86.50;;;;;;4888421;29;20059;-88
2023/01/01 08:51:00;;;;;;;6.45;0.98;;;12.00;86.60;;;;;;4873098;29;20088;-89
2023/01/01 08:53:29;;;;;;;3.30;0.40;;;12.00;86.50;;;;;;4883902;29;20139;-89
2023/01/01 08:56:14;;;;;;;3.20;0.20;;;12.00;86.30;;;;;;4892642;29;20486;-89
2023/01/01 08:58:44;;;;;;;3.83;0.47;;;12.10;86.20;;;;;;4890496;29;20050;-89
2023/01/01 09:01:14;;;;;;;1.98;0.20;;;12.10;86.20;;;;;;4896366;29;20075;-89
2023/01/01 09:03:42;;;;;;;1.52;0.10;;;12.10;86.30;;;;;;4890831;29;20466;-89
2023/01/01 09:06:09;;;;;;;2.00;0.57;;;12.10;86.40;;;;;;4887624;29;20076;-89
2023/01/01 09:08:41;;;;;;;1.40;0.40;;;12.10;86.50;;;;;;4887648;29;20423;-89
2023/01/01 09:11:21;;;;;;;2.92;0.30;;;12.20;86.50;;;;;;4888466;29;20063;-90
2023/01/01 09:13:48;;;;;;;1.08;0.20;;;12.20;86.30;;;;;;4921665;29;20051;-89
2023/01/01 09:16:19;;;;;;;1.45;0.20;;;12.30;86.30;;;;;;4908311;29;20526;-89
2023/01/01 09:18:52;;;;;;;1.98;0.35;;;12.30;86.30;;;;;;4882670;29;20098;-89
2023/01/01 09:21:19;;;;;;;2.10;0.20;;;12.30;86.40;;;;;;4917725;29;20048;-89
2023/01/01 09:23:47;;;;;;;2.90;0.50;;;12.30;86.50;;;;;;4875421;29;20387;-89
2023/01/01 09:26:14;;;;;;;3.67;0.40;;;12.30;86.60;;;;;;4918707;29;20076;-89
2023/01/01 09:28:43;;;;;;;3.22;0.35;;;12.30;86.80;;;;;;4912190;29;20044;-89
2023/01/01 09:31:10;;;;;;;6.32;0.60;;;12.40;86.90;;;;;;4895079;29;20044;-89
2023/01/01 09:33:38;;;;;;;2.20;0.40;;;12.30;87.10;;;;;;4887520;29;20052;-89
2023/01/01 09:36:32;;;;;;;3.60;0.40;;;12.40;87.20;;;;;;4881207;29;20052;-89
2023/01/01 09:39:02;;;;;;;2.05;0.30;;;12.40;87.30;;;;;;4912429;29;20147;-89
2023/01/01 09:41:51;;;;;;;2.55;0.40;;;12.30;87.40;;;;;;4897867;29;20044;-88
2023/01/01 09:44:27;;;;;;;4.82;0.60;;;12.30;87.50;;;;;;4896851;29;20043;-89
2023/01/01 09:46:59;;;;;;;3.50;0.60;;;12.30;87.80;;;;;;4907859;29;20055;-89
2023/01/01 09:49:44;;;;;;;2.00;0.25;;;12.30;87.90;;;;;;4913135;29;20060;-88
2023/01/01 09:52:14;;;;;;;3.45;0.50;;;12.40;87.90;;;;;;4902279;29;20103;-89
2023/01/01 09:54:50;;;;;;;3.67;0.35;;;12.40;88.00;;;;;;4874689;29;20047;-89
2023/01/01 09:57:28;;;;;;;1.63;0.40;;;12.50;87.90;;;;;;4903080;29;20047;-89
2023/01/01 09:59:59;;;;;;;1.52;0.45;;;12.50;87.90;;;;;;4911400;29;20052;-89
2023/01/01 10:02:55;;;;;;;1.17;0.30;;;12.60;87.90;;;;;;4907051;29;20051;-89
2023/01/01 10:05:31;;;;;;;2.50;0.30;;;12.60;88.00;;;;;;4898284;29;20043;-89
2023/01/01 10:08:03;;;;;;;5.85;0.40;;;12.60;88.10;;;;;;4914436;29;20112;-89
2023/01/01 10:10:48;;;;;;;6.10;0.40;;;12.60;88.10;;;;;;4898164;29;20150;-89
2023/01/01 10:13:33;;;;;;;3.00;0.60;;;12.70;88.10;;;;;;4918858;29;20230;-89
2023/01/01 10:16:16;;;;;;;1.58;0.40;;;12.70;88.20;;;;;;4920176;29;20047;-89
2023/01/01 10:18:55;;;;;;;1.70;0.22;;;12.70;88.30;;;;;;4895423;29;20056;-94
2023/01/01 10:21:35;;;;;;;2.30;0.30;;;12.80;88.30;;;;;;4888043;29;20130;-93
2023/01/01 10:24:24;;;;;;;5.45;0.70;;;12.80;88.50;;;;;;4896318;29;20067;-93
2023/01/01 10:26:55;;;;;;;6.13;0.88;;;12.70;88.80;;;;;;4920514;29;20054;-92
2023/01/01 10:29:37;;;;;;;3.00;0.43;;;12.60;89.40;;;;;;4920575;29;20051;-92
2023/01/01 10:32:33;;;;;;;3.75;0.50;;;12.50;90.00;;;;;;4903004;29;20052;-90
2023/01/01 10:35:10;;;;;;;5.10;0.75;;;12.40;90.40;;;;;;4886123;29;20056;-91
2023/01/01 10:37:38;;;;;;;4.47;0.70;;;12.20;90.80;;;;;;4909276;29;20528;-91
2023/01/01 10:40:14;;;;;;;5.47;0.68;;;12.10;91.10;;;;;;4918882;29;20039;-90
2023/01/01 10:42:46;;;;;;;3.63;0.60;;;12.10;91.40;;;;;;4885687;29;20044;-90
2023/01/01 10:45:22;;;;;;;3.53;0.60;;;12.00;91.60;;;;;;4871494;29;20123;-90
2023/01/01 10:48:32;;;;;;;3.30;1.00;;;11.90;91.90;;;;;;4870208;29;20522;-91
2023/01/01 10:51:06;;;;;;;2.40;0.40;;;11.90;92.00;;;;;;4816782;29;20100;-90
2023/01/01 10:53:37;;;;;;;2.33;0.30;;;11.90;92.20;;;;;;4811671;29;20058;-90
2023/01/01 10:56:16;;;;;;;2.33;0.50;;;11.80;92.30;;;;;;4875868;29;20131;-90
2023/01/01 10:58:53;;;;;;;3.30;0.57;;;11.80;92.30;;;;;;4908872;29;20146;-89
2023/01/01 11:01:26;;;;;;;4.05;0.45;;;11.70;92.40;;;;;;4908255;29;20052;-90
2023/01/01 11:04:02;;;;;;;2.83;0.40;;;11.70;92.80;;;;;;4906328;29;20051;-90
2023/01/01 11:06:45;;;;;;;2.67;0.45;;;11.60;92.70;;;;;;4913736;29;20044;-91
2023/01/01 11:09:30;;;;;;;5.32;0.80;;;11.60;93.10;;;;;;4902575;29;20068;-91
2023/01/01 11:12:00;;;;;;;4.22;0.40;;;11.60;93.10;;;;;;4912214;29;20494;-91
2023/01/01 11:14:52;;;;;;;4.32;0.50;;;11.50;93.20;;;;;;4892388;29;20047;-90
2023/01/01 11:17:25;;;;;;;2.60;0.50;;;11.60;93.20;;;;;;4907373;29;20056;-90
2023/01/01 11:19:53;;;;;;;3.88;0.70;;;11.60;93.20;;;;;;4893906;29;20100;-90
2023/01/01 11:22:37;;;;;;;4.22;0.40;;;11.60;93.50;;;;;;4906668;29;20044;-90
2023/01/01 11:25:20;;;;;;;2.55;0.45;;;11.70;93.20;;;;;;4903581;29;20043;-90
2023/01/01 11:27:51;;;;;;;1.08;0.30;;;11.70;93.20;;;;;;4908646;29;20134;-88
2023/01/01 11:30:26;;;;;;;4.38;0.60;;;11.70;93.20;;;;;;4913693;29;20048;-87
2023/01/01 11:33:02;;;;;;;2.08;0.38;;;11.70;93.20;;;;;;4873633;29;20071;-91
2023/01/01 11:35:36;;;;;;;3.35;0.35;;;11.80;93.20;;;;;;4888579;29;20048;-90
2023/01/01 11:38:03;;;;;;;1.45;0.30;;;11.80;93.20;;;;;;4885882;29;20091;-91
2023/01/01 11:40:46;;;;;;;2.50;0.25;;;11.90;93.20;;;;;;4879564;29;20135;-96
2023/01/01 11:43:21;;;;;;;2.28;0.32;;;12.00;93.10;;;;;;4920475;29;20044;-91
2023/01/01 11:45:55;;;;;;;4.53;0.63;;;12.10;93.00;;;;;;4885449;29;20053;-89
2023/01/01 11:48:30;;;;;;;2.15;0.35;;;12.20;93.00;;;;;;4880506;29;20048;-90
2023/01/01 11:51:10;;;;;;;1.13;0.50;;;12.20;92.90;;;;;;4905773;29;20128;-89
2023/01/01 11:53:40;;;;;;;1.05;0.38;;;12.30;92.90;;;;;;4911093;29;20060;-91
2023/01/01 11:56:16;;;;;;;1.40;0.50;;;12.40;92.80;;;;;;4897203;29;20281;-91
2023/01/01 11:58:50;;;;;;;2.17;0.88;;;12.40;92.80;;;;;;4932480;29;20052;-96
2023/01/01 12:01:30;;;;;;;2.85;0.50;;;12.50;92.80;;;;;;4929008;29;20045;-91
2023/01/01 12:04:33;;;;;;;2.95;0.80;;;12.50;92.80;;;;;;4924469;29;20054;-90
2023/01/01 12:07:14;;;;;;;4.18;0.60;;;12.60;92.80;;;;;;4900315;29;20048;-91
2023/01/01 12:10:11;;;;;;;4.40;0.60;;;12.60;92.80;;;;;;4907783;29;20058;-91
2023/01/01 12:12:45;;;;;;;1.95;0.90;;;12.70;92.80;;;;;;4876090;29;20051;-91
2023/01/01 12:15:23;;;;;;;3.05;1.13;;;12.70;92.80;;;;;;4912937;29;20040;-91
2023/01/01 12:18:26;;;;;;;3.35;1.23;;;12.70;92.80;;;;;;4901870;29;20476;-91
2023/01/01 12:21:18;;;;;;;2.85;0.80;;;12.70;92.80;;;;;;4873971;29;20127;-91
2023/01/01 12:23:45;;;;;;;3.42;0.88;;;12.80;92.80;;;;;;4909634;29;20052;-91
2023/01/01 12:26:25;;;;;;;2.33;0.90;;;12.80;92.80;;;;;;4906807;29;20048;-91
2023/01/01 12:29:23;;;;;;;2.65;0.80;;;12.90;92.80;;;;;;4906378;29;20035;-91
2023/01/01 12:32:11;;;;;;;3.78;0.90;;;12.90;92.80;;;;;;4923368;29;20055;-92
2023/01/01 12:35:02;;;;;;;4.93;1.13;;;12.90;92.80;;;;;;4906791;29;20152;-94
2023/01/01 12:38:00;;;;;;;4.32;0.95;;;12.90;92.80;;;;;;4899154;29;20112;-92
2023/01/01 12:40:55;;;;;;;5.03;1.40;;;13.00;92.80;;;;;;4914388;29;20054;-92
2023/01/01 12:43:59;;;;;;;5.25;1.02;;;13.00;92.80;;;;;;4907542;29;20521;-91
2023/01/01 12:46:44;;;;;;;5.13;1.00;;;13.20;92.70;;;;;;4907627;29;20066;-92
2023/01/01 12:49:35;;;;;;;3.90;0.65;;;13.20;92.60;;;;;;4907447;29;20048;-92
2023/01/01 12:52:09;;;;;;;5.78;1.20;;;13.30;92.50;;;;;;4901753;29;20087;-91
2023/01/01 12:55:03;;;;;;;4.40;1.23;;;13.30;92.50;;;;;;4914441;29;20051;-93
2023/01/01 12:57:42;;;;;;;;;;;13.40;92.40;;;;;;4907695;29;20095;-94
2023/01/01 13:00:19;;;;;;;5.75;1.00;;;13.40;92.40;;;;;;4911775;29;19923;-92
2023/01/01 13:03:09;;;;;;;5.63;1.25;;;13.50;92.50;;;;;;4894977;29;20491;-93
2023/01/01 13:06:03;;;;;;;4.22;1.15;;;13.50;92.00;;;;;;4892002;29;20107;-92
2023/01/01 13:09:06;;;;;;;5.45;1.60;;;13.50;92.00;;;;;;4898956;29;20040;-92
2023/01/01 13:11:45;;;;;;;9.15;1.20;;;13.60;91.90;;;;;;4886183;29;20134;-91
2023/01/01 13:14:13;;;;;;;7.20;1.48;;;13.60;91.70;;;;;;4893776;29;20048;-94
2023/01/01 13:16:49;;;;;;;6.57;1.25;;;13.60;91.80;;;;;;4880528;29;20044;-96
2023/01/01 13:19:59;;;;;;;6.82;1.52;;;13.60;91.70;;;;;;4920187;29;20106;-90
2023/01/01 13:26:53;;;;;;;6.63;1.08;;;13.50;91.70;;;;;;4915517;29;20032;-92
2023/01/01 13:29:20;;;;;;;7.32;1.15;;;13.50;91.50;;;;;;4890957;29;20040;-93
2023/01/01 13:31:59;;;;;;;9.85;1.13;;;13.50;91.40;;;;;;4905706;29;20062;-91
2023/01/01 13:34:58;;;;;;;5.70;1.25;;;13.50;91.70;;;;;;4914846;29;20082;-93